DLH459 KSFO-EDDM
Flight info
| Callsign | DLH459 |
|---|---|
| Flight time | N/A |
| Altitude | 35000 |
| Route | SNTNA2 ORRCA DCT FMG J94 LLC DCT TWF DCT IDA DCT DNW/N0495F370 DCT DIK DCT FARID DCT 50N088W DCT YMO DCT PUVOK/N0499F390 DCT AVUTI/M085F390 DCT 59N050W 60N040W 60N030W 59N020W DCT GOMUP/N0489F390 DCT GINGA/N0489F410 DCT EMGAT DCT ERKIT N110 DOLAS DCT NAVPI DCT OTMEC DCT DODEN/N0494F330 DCT TABUM DCT BOMBI T104 HAREM/N0487F270 T104 ROKIL ROKIL1B |
| Aircraft | A359/H-SDE2E3GHIJ3J4J5LM1ORWXY/LB1D1 |
Departure
| Time | 2026-05-06 04:54 |
|---|---|
| Airport | San Francisco International Airport (KSFO) |
Arrival
| Time | N/A |
|---|---|
| Airport | Munich Airport (EDDM) |
| Time | Latitude | Longitude | Altitude | Speed | Heading |
|---|---|---|---|---|---|
| 2026-05-06 04:26 | 37.61801 | -122.39324 | 27 ft | 0 kts | 28° |
| 2026-05-06 04:41 | 37.61783 | -122.39336 | 25 ft | 4 kts | 28° |
| 2026-05-06 04:41 | 37.61764 | -122.39349 | 25 ft | 4 kts | 26° |
| 2026-05-06 04:41 | 37.61743 | -122.39358 | 26 ft | 4 kts | 354° |
| 2026-05-06 04:41 | 37.61727 | -122.39353 | 26 ft | 4 kts | 308° |
| 2026-05-06 04:42 | 37.61715 | -122.39327 | 25 ft | 4 kts | 297° |
| 2026-05-06 04:42 | 37.61707 | -122.39308 | 25 ft | 2 kts | 297° |
| 2026-05-06 04:45 | 37.61708 | -122.39311 | 25 ft | 3 kts | 298° |
| 2026-05-06 04:46 | 37.61742 | -122.39392 | 27 ft | 14 kts | 297° |
| 2026-05-06 04:46 | 37.61794 | -122.39497 | 27 ft | 14 kts | 323° |
| 2026-05-06 04:46 | 37.61881 | -122.39533 | 27 ft | 13 kts | 358° |
| 2026-05-06 04:46 | 37.61972 | -122.39477 | 27 ft | 19 kts | 63° |
| 2026-05-06 04:47 | 37.62013 | -122.39315 | 27 ft | 19 kts | 72° |
| 2026-05-06 04:47 | 37.62095 | -122.39192 | 27 ft | 19 kts | 34° |
| 2026-05-06 04:47 | 37.62208 | -122.39115 | 26 ft | 19 kts | 36° |
| 2026-05-06 04:47 | 37.62249 | -122.39023 | 27 ft | 18 kts | 72° |
| 2026-05-06 04:48 | 37.62228 | -122.38825 | 27 ft | 18 kts | 118° |
| 2026-05-06 04:48 | 37.62190 | -122.38732 | 27 ft | 18 kts | 117° |
| 2026-05-06 04:48 | 37.62109 | -122.38541 | 27 ft | 19 kts | 118° |
| 2026-05-06 04:48 | 37.62067 | -122.38442 | 27 ft | 19 kts | 118° |
| 2026-05-06 04:49 | 37.62003 | -122.38291 | 27 ft | 20 kts | 118° |
| 2026-05-06 04:49 | 37.61942 | -122.38143 | 27 ft | 20 kts | 117° |
| 2026-05-06 04:49 | 37.61877 | -122.37983 | 27 ft | 21 kts | 117° |
| 2026-05-06 04:49 | 37.61813 | -122.37818 | 27 ft | 21 kts | 112° |
| 2026-05-06 04:50 | 37.61759 | -122.37645 | 27 ft | 21 kts | 112° |
| 2026-05-06 04:50 | 37.61701 | -122.37471 | 27 ft | 22 kts | 114° |
| 2026-05-06 04:50 | 37.61633 | -122.37298 | 26 ft | 22 kts | 117° |
| 2026-05-06 04:50 | 37.61564 | -122.37134 | 27 ft | 22 kts | 118° |
| 2026-05-06 04:51 | 37.61488 | -122.36961 | 27 ft | 23 kts | 124° |
| 2026-05-06 04:51 | 37.61385 | -122.36818 | 27 ft | 23 kts | 138° |
| 2026-05-06 04:51 | 37.61312 | -122.36651 | 27 ft | 22 kts | 117° |
| 2026-05-06 04:51 | 37.61241 | -122.36481 | 27 ft | 22 kts | 118° |
| 2026-05-06 04:52 | 37.61164 | -122.36315 | 27 ft | 22 kts | 118° |
| 2026-05-06 04:52 | 37.61095 | -122.36144 | 27 ft | 22 kts | 117° |
| 2026-05-06 04:52 | 37.61051 | -122.36000 | 27 ft | 8 kts | 90° |
| 2026-05-06 04:52 | 37.61071 | -122.35935 | 27 ft | 8 kts | 54° |
| 2026-05-06 04:53 | 37.61117 | -122.35891 | 27 ft | 9 kts | 28° |
| 2026-05-06 04:53 | 37.61173 | -122.35872 | 27 ft | 8 kts | 343° |
| 2026-05-06 04:53 | 37.61207 | -122.35926 | 27 ft | 8 kts | 297° |
| 2026-05-06 04:53 | 37.61272 | -122.36081 | 27 ft | 42 kts | 298° |
| 2026-05-06 04:54 | 37.61516 | -122.36659 | 27 ft | 104 kts | 298° |
| 2026-05-06 04:54 | 37.61930 | -122.37645 | 27 ft | 155 kts | 297° |
| 2026-05-06 04:54 | 37.62495 | -122.38987 | 156 ft | 190 kts | 296° |
| 2026-05-06 04:54 | 37.63172 | -122.40566 | 638 ft | 207 kts | 298° |
| 2026-05-06 04:55 | 37.63865 | -122.42185 | 1356 ft | 219 kts | 297° |
| 2026-05-06 04:55 | 37.64619 | -122.43982 | 1879 ft | 239 kts | 298° |
| 2026-05-06 04:55 | 37.65413 | -122.45838 | 2967 ft | 244 kts | 298° |
| 2026-05-06 04:55 | 37.66243 | -122.47749 | 4029 ft | 252 kts | 297° |
| 2026-05-06 04:56 | 37.67105 | -122.49723 | 5009 ft | 262 kts | 297° |
| 2026-05-06 04:56 | 37.68224 | -122.51587 | 5912 ft | 273 kts | 320° |
| 2026-05-06 04:56 | 37.69949 | -122.52556 | 6897 ft | 276 kts | 352° |
| 2026-05-06 04:56 | 37.71842 | -122.52687 | 7927 ft | 275 kts | 0° |
| 2026-05-06 04:57 | 37.73764 | -122.52696 | 8968 ft | 275 kts | 0° |
| 2026-05-06 04:57 | 37.75674 | -122.52722 | 9916 ft | 277 kts | 0° |
| 2026-05-06 04:57 | 37.77638 | -122.52725 | 10502 ft | 291 kts | 4° |
| 2026-05-06 04:57 | 37.79657 | -122.52092 | 10791 ft | 310 kts | 28° |
| 2026-05-06 04:58 | 37.80284 | -122.51613 | 10876 ft | 316 kts | 37° |
| 2026-05-06 04:58 | 37.81370 | -122.50224 | 11086 ft | 330 kts | 55° |
| 2026-05-06 04:58 | 37.82464 | -122.47587 | 11439 ft | 349 kts | 65° |
| 2026-05-06 04:58 | 37.83464 | -122.44701 | 11877 ft | 364 kts | 63° |
| 2026-05-06 04:59 | 37.84831 | -122.42008 | 12613 ft | 368 kts | 51° |
| 2026-05-06 04:59 | 37.86485 | -122.39539 | 13509 ft | 370 kts | 49° |
| 2026-05-06 04:59 | 37.88190 | -122.37083 | 14329 ft | 372 kts | 48° |
| 2026-05-06 04:59 | 37.89911 | -122.34608 | 15122 ft | 374 kts | 48° |
| 2026-05-06 05:00 | 37.91637 | -122.32121 | 15931 ft | 375 kts | 48° |
| 2026-05-06 05:00 | 37.93342 | -122.29662 | 16699 ft | 376 kts | 48° |
| 2026-05-06 05:00 | 37.95075 | -122.27163 | 17459 ft | 378 kts | 48° |
| 2026-05-06 05:00 | 37.96818 | -122.24645 | 18233 ft | 380 kts | 48° |
| 2026-05-06 05:01 | 37.98566 | -122.22117 | 18836 ft | 383 kts | 48° |
| 2026-05-06 05:01 | 38.00314 | -122.19587 | 19394 ft | 386 kts | 48° |
| 2026-05-06 05:01 | 38.02100 | -122.17001 | 19939 ft | 390 kts | 48° |
| 2026-05-06 05:01 | 38.03902 | -122.14391 | 20470 ft | 394 kts | 48° |
| 2026-05-06 05:02 | 38.05711 | -122.11767 | 20986 ft | 397 kts | 48° |
| 2026-05-06 05:02 | 38.07539 | -122.09113 | 21482 ft | 401 kts | 49° |
| 2026-05-06 05:02 | 38.09390 | -122.06424 | 21980 ft | 405 kts | 49° |
| 2026-05-06 05:02 | 38.11225 | -122.03755 | 22478 ft | 408 kts | 49° |
| 2026-05-06 05:03 | 38.13102 | -122.01024 | 22956 ft | 412 kts | 49° |
| 2026-05-06 05:03 | 38.14993 | -121.98270 | 23376 ft | 415 kts | 49° |
| 2026-05-06 05:03 | 38.16900 | -121.95490 | 23804 ft | 419 kts | 49° |
| 2026-05-06 05:03 | 38.18827 | -121.92678 | 24228 ft | 421 kts | 49° |
| 2026-05-06 05:04 | 38.20758 | -121.89857 | 24630 ft | 424 kts | 49° |
| 2026-05-06 05:04 | 38.22699 | -121.87020 | 25046 ft | 425 kts | 49° |
| 2026-05-06 05:04 | 38.24620 | -121.84210 | 25439 ft | 428 kts | 50° |
| 2026-05-06 05:04 | 38.26580 | -121.81340 | 25835 ft | 430 kts | 50° |
| 2026-05-06 05:05 | 38.28545 | -121.78460 | 26226 ft | 432 kts | 50° |
| 2026-05-06 05:05 | 38.30523 | -121.75557 | 26606 ft | 434 kts | 50° |
| 2026-05-06 05:05 | 38.32516 | -121.72631 | 27006 ft | 436 kts | 50° |
| 2026-05-06 05:05 | 38.34484 | -121.69739 | 27391 ft | 438 kts | 50° |
| 2026-05-06 05:06 | 38.36491 | -121.66788 | 27763 ft | 440 kts | 50° |
| 2026-05-06 05:06 | 38.38503 | -121.63826 | 28129 ft | 442 kts | 50° |
| 2026-05-06 05:06 | 38.40518 | -121.60856 | 28501 ft | 444 kts | 50° |
| 2026-05-06 05:06 | 38.42543 | -121.57869 | 28843 ft | 446 kts | 50° |
| 2026-05-06 05:07 | 38.44575 | -121.54870 | 29171 ft | 448 kts | 50° |
| 2026-05-06 05:07 | 38.46569 | -121.51800 | 29474 ft | 450 kts | 52° |
| 2026-05-06 05:07 | 38.48470 | -121.48605 | 29852 ft | 450 kts | 54° |
| 2026-05-06 05:07 | 38.50311 | -121.45388 | 30307 ft | 448 kts | 54° |
| 2026-05-06 05:08 | 38.52129 | -121.42185 | 30681 ft | 447 kts | 54° |
| 2026-05-06 05:08 | 38.53951 | -121.38996 | 31018 ft | 446 kts | 54° |
| 2026-05-06 05:08 | 38.55801 | -121.35790 | 31372 ft | 445 kts | 53° |
| 2026-05-06 05:08 | 38.57632 | -121.32643 | 31709 ft | 444 kts | 53° |
| 2026-05-06 05:09 | 38.59488 | -121.29468 | 32016 ft | 444 kts | 53° |
| 2026-05-06 05:09 | 38.61348 | -121.26294 | 32325 ft | 443 kts | 53° |
| 2026-05-06 05:09 | 38.63184 | -121.23161 | 32642 ft | 443 kts | 53° |
| 2026-05-06 05:09 | 38.65039 | -121.19993 | 32958 ft | 442 kts | 53° |
| 2026-05-06 05:10 | 38.66858 | -121.16883 | 33256 ft | 441 kts | 53° |
| 2026-05-06 05:10 | 38.68688 | -121.13749 | 33557 ft | 440 kts | 53° |
| 2026-05-06 05:10 | 38.70531 | -121.10589 | 33856 ft | 439 kts | 53° |
| 2026-05-06 05:10 | 38.72347 | -121.07471 | 34150 ft | 438 kts | 53° |
| 2026-05-06 05:11 | 38.74182 | -121.04317 | 34348 ft | 439 kts | 53° |
| 2026-05-06 05:11 | 38.76001 | -121.01187 | 34494 ft | 440 kts | 53° |
| 2026-05-06 05:11 | 38.77822 | -120.98051 | 34666 ft | 441 kts | 53° |
| 2026-05-06 05:11 | 38.79669 | -120.94869 | 34838 ft | 442 kts | 53° |
| 2026-05-06 05:12 | 38.81511 | -120.91690 | 34993 ft | 443 kts | 53° |
| 2026-05-06 05:12 | 38.83326 | -120.88556 | 35113 ft | 444 kts | 53° |
| 2026-05-06 05:12 | 38.85184 | -120.85344 | 35281 ft | 445 kts | 53° |
| 2026-05-06 05:12 | 38.87023 | -120.82163 | 35440 ft | 445 kts | 53° |
| 2026-05-06 05:13 | 38.88878 | -120.78951 | 35570 ft | 446 kts | 53° |
| 2026-05-06 05:13 | 38.90722 | -120.75753 | 35732 ft | 447 kts | 53° |
| 2026-05-06 05:13 | 38.92564 | -120.72555 | 35856 ft | 447 kts | 53° |
| 2026-05-06 05:13 | 38.94422 | -120.69327 | 36008 ft | 448 kts | 53° |
| 2026-05-06 05:14 | 38.96271 | -120.66113 | 36133 ft | 449 kts | 53° |
| 2026-05-06 05:14 | 38.98123 | -120.62887 | 36300 ft | 448 kts | 53° |
| 2026-05-06 05:14 | 38.99971 | -120.59669 | 36421 ft | 449 kts | 53° |
| 2026-05-06 05:14 | 39.01817 | -120.56447 | 36550 ft | 450 kts | 53° |
| 2026-05-06 05:15 | 39.03685 | -120.53187 | 36663 ft | 451 kts | 53° |
| 2026-05-06 05:15 | 39.05532 | -120.49959 | 36792 ft | 451 kts | 53° |
| 2026-05-06 05:15 | 39.07401 | -120.46689 | 36915 ft | 451 kts | 53° |
| 2026-05-06 05:15 | 39.09265 | -120.43425 | 37030 ft | 452 kts | 53° |
| 2026-05-06 05:16 | 39.11129 | -120.40157 | 37077 ft | 454 kts | 53° |
| 2026-05-06 05:16 | 39.14861 | -120.33604 | 37081 ft | 460 kts | 53° |
| 2026-05-06 05:17 | 39.18673 | -120.26901 | 37090 ft | 465 kts | 53° |
| 2026-05-06 05:17 | 39.22501 | -120.20151 | 37120 ft | 468 kts | 53° |
| 2026-05-06 05:18 | 39.26351 | -120.13348 | 37120 ft | 471 kts | 53° |
| 2026-05-06 05:18 | 39.30208 | -120.06518 | 37131 ft | 472 kts | 53° |
| 2026-05-06 05:19 | 39.34073 | -119.99658 | 37107 ft | 472 kts | 53° |
| 2026-05-06 05:19 | 39.37929 | -119.92801 | 37078 ft | 472 kts | 53° |
| 2026-05-06 05:20 | 39.41801 | -119.85899 | 37016 ft | 473 kts | 53° |
| 2026-05-06 05:20 | 39.45636 | -119.79053 | 37039 ft | 473 kts | 53° |
| 2026-05-06 05:21 | 39.49491 | -119.72154 | 37029 ft | 473 kts | 53° |
| 2026-05-06 05:21 | 39.53346 | -119.65240 | 37024 ft | 473 kts | 53° |
| 2026-05-06 05:22 | 39.57211 | -119.58328 | 36986 ft | 473 kts | 53° |
| 2026-05-06 05:22 | 39.61070 | -119.51418 | 36963 ft | 473 kts | 53° |
| 2026-05-06 05:23 | 39.64897 | -119.44552 | 36919 ft | 473 kts | 53° |
| 2026-05-06 05:23 | 39.70674 | -119.34154 | 36896 ft | 472 kts | 53° |
| 2026-05-06 05:24 | 39.74506 | -119.27236 | 36896 ft | 472 kts | 53° |
| 2026-05-06 05:24 | 39.78337 | -119.20308 | 36899 ft | 472 kts | 53° |
| 2026-05-06 05:25 | 39.82167 | -119.13367 | 36902 ft | 471 kts | 53° |
| 2026-05-06 05:25 | 39.85983 | -119.06433 | 36906 ft | 471 kts | 53° |
| 2026-05-06 05:26 | 39.89771 | -118.99534 | 36912 ft | 471 kts | 53° |
| 2026-05-06 05:26 | 39.93576 | -118.92592 | 36928 ft | 471 kts | 53° |
| 2026-05-06 05:27 | 39.97391 | -118.85615 | 36954 ft | 471 kts | 53° |
| 2026-05-06 05:27 | 40.01174 | -118.78681 | 36972 ft | 471 kts | 53° |
| 2026-05-06 05:28 | 40.04968 | -118.71714 | 36992 ft | 471 kts | 53° |
| 2026-05-06 05:28 | 40.08765 | -118.64725 | 36999 ft | 471 kts | 53° |
| 2026-05-06 05:29 | 40.12550 | -118.57740 | 36992 ft | 471 kts | 53° |
| 2026-05-06 05:29 | 40.16507 | -118.50965 | 37316 ft | 464 kts | 49° |
| 2026-05-06 05:30 | 40.18519 | -118.47760 | 37588 ft | 460 kts | 49° |
| 2026-05-06 05:30 | 40.20567 | -118.44519 | 37903 ft | 456 kts | 49° |
| 2026-05-06 05:30 | 40.22550 | -118.41359 | 38183 ft | 452 kts | 49° |
| 2026-05-06 05:30 | 40.24535 | -118.38166 | 38483 ft | 447 kts | 49° |
| 2026-05-06 05:31 | 40.26462 | -118.35037 | 38747 ft | 443 kts | 49° |
| 2026-05-06 05:31 | 40.28393 | -118.31882 | 38918 ft | 440 kts | 49° |
| 2026-05-06 05:31 | 40.32230 | -118.25587 | 38936 ft | 444 kts | 49° |
| 2026-05-06 05:32 | 40.36093 | -118.19230 | 38934 ft | 446 kts | 49° |
| 2026-05-06 05:32 | 40.39960 | -118.12854 | 38935 ft | 449 kts | 49° |
| 2026-05-06 05:33 | 40.43861 | -118.06412 | 38835 ft | 451 kts | 48° |